createdAt,value
2018-05-16T00:01:51.849Z,15.32
2018-05-16T00:04:19.257Z,15.31
2018-05-16T00:06:48.197Z,15.32
2018-05-16T00:09:15.624Z,15.31
2018-05-16T00:11:44.125Z,15.30
2018-05-16T00:14:11.528Z,15.34
2018-05-16T00:16:40.293Z,15.39
2018-05-16T00:19:07.708Z,15.43
2018-05-16T00:21:35.124Z,15.41
2018-05-16T00:24:02.576Z,15.42
2018-05-16T00:26:30.017Z,15.46
2018-05-16T00:28:57.428Z,15.50
2018-05-16T00:31:25.099Z,15.48
2018-05-16T00:33:52.526Z,15.47
2018-05-16T00:36:19.932Z,15.47
2018-05-16T00:38:47.353Z,15.51
2018-05-16T00:41:15.515Z,15.56
2018-05-16T00:43:42.933Z,15.58
2018-05-16T00:46:10.331Z,15.58
2018-05-16T00:48:37.753Z,15.60
2018-05-16T00:51:16.860Z,15.62
2018-05-16T00:53:46.157Z,15.59
2018-05-16T00:56:13.560Z,15.61
2018-05-16T00:58:40.960Z,15.62
2018-05-16T01:01:08.382Z,15.64
2018-05-16T01:03:35.775Z,15.61
2018-05-16T01:06:03.190Z,15.57
2018-05-16T01:08:30.597Z,15.52
2018-05-16T01:10:57.995Z,15.43
2018-05-16T01:13:25.421Z,15.37
2018-05-16T01:15:52.819Z,15.32
2018-05-16T01:18:20.228Z,15.28
2018-05-16T01:20:47.648Z,15.27
2018-05-16T01:23:15.052Z,15.27
2018-05-16T01:25:42.457Z,15.23
2018-05-16T01:28:09.887Z,15.19
2018-05-16T01:30:37.290Z,15.15
2018-05-16T01:33:04.692Z,15.13
2018-05-16T01:35:32.112Z,15.10
2018-05-16T01:37:59.528Z,15.09
2018-05-16T01:40:26.939Z,15.08
2018-05-16T01:42:54.364Z,15.07
2018-05-16T01:45:21.797Z,15.06
2018-05-16T01:47:49.236Z,15.05
2018-05-16T01:50:16.649Z,15.03
2018-05-16T01:52:44.069Z,15.01
2018-05-16T01:55:11.800Z,14.98
2018-05-16T01:57:40.156Z,14.96
2018-05-16T02:00:07.635Z,14.95
2018-05-16T02:02:35.064Z,14.92
2018-05-16T02:05:02.505Z,14.87
2018-05-16T02:07:29.925Z,14.84
2018-05-16T02:09:57.376Z,14.81
2018-05-16T02:12:24.839Z,14.73
2018-05-16T02:14:52.251Z,14.75
2018-05-16T02:17:20.057Z,14.70
2018-05-16T02:19:47.471Z,14.68
2018-05-16T02:22:14.920Z,14.63
2018-05-16T02:24:42.351Z,14.59
2018-05-16T02:27:09.796Z,14.58
2018-05-16T02:29:37.232Z,14.57
2018-05-16T02:32:04.653Z,14.59
2018-05-16T02:34:32.541Z,14.62
2018-05-16T02:36:59.952Z,14.59
2018-05-16T02:39:27.372Z,14.59
2018-05-16T02:41:54.795Z,14.58
2018-05-16T02:44:22.240Z,14.58
2018-05-16T02:46:49.929Z,14.58
2018-05-16T02:49:17.355Z,14.59
2018-05-16T02:51:44.759Z,14.58
2018-05-16T02:54:12.719Z,14.56
2018-05-16T02:56:40.149Z,14.52
2018-05-16T02:59:07.624Z,14.48
2018-05-16T03:01:35.028Z,14.46
2018-05-16T03:04:02.456Z,14.47
2018-05-16T03:06:29.884Z,14.48
2018-05-16T03:08:57.858Z,14.49
2018-05-16T03:11:25.313Z,14.47
2018-05-16T03:13:52.721Z,14.46
2018-05-16T03:16:20.181Z,14.44
2018-05-16T03:18:47.596Z,14.37
2018-05-16T03:21:15.490Z,14.32
2018-05-16T03:23:42.896Z,14.30
2018-05-16T03:26:10.325Z,14.28
2018-05-16T03:28:37.731Z,14.24
2018-05-16T03:31:05.337Z,14.21
2018-05-16T03:33:32.739Z,14.16
2018-05-16T03:36:00.205Z,14.13
2018-05-16T03:38:27.629Z,14.14
2018-05-16T03:40:55.054Z,14.11
2018-05-16T03:43:22.460Z,14.08
2018-05-16T03:45:49.915Z,14.08
2018-05-16T03:48:17.323Z,14.06
2018-05-16T03:50:45.681Z,14.06
2018-05-16T03:53:13.137Z,14.09
2018-05-16T03:55:40.552Z,14.10
2018-05-16T03:58:20.809Z,14.06
2018-05-16T04:04:13.076Z,13.96
2018-05-16T04:06:40.523Z,14.01
2018-05-16T04:09:07.978Z,13.96
2018-05-16T04:11:35.397Z,13.94
2018-05-16T04:14:02.826Z,13.83
2018-05-16T04:16:30.235Z,13.85
2018-05-16T04:18:57.980Z,13.94
2018-05-16T04:21:25.424Z,14.03
2018-05-16T04:23:52.839Z,14.11
2018-05-16T04:26:20.261Z,14.19
2018-05-16T04:28:47.697Z,14.24
2018-05-16T04:31:15.149Z,14.27
2018-05-16T04:33:42.572Z,14.28
2018-05-16T04:36:10.028Z,14.45
2018-05-16T04:38:37.456Z,14.53
2018-05-16T04:41:04.887Z,14.66
2018-05-16T04:43:32.335Z,14.87
2018-05-16T04:45:59.749Z,15.16
2018-05-16T04:48:27.184Z,15.33
2018-05-16T04:50:54.596Z,15.62
2018-05-16T04:53:22.032Z,16.02
2018-05-16T04:55:49.463Z,16.62
2018-05-16T04:58:16.880Z,17.30
2018-05-16T05:00:44.312Z,18.05
2018-05-16T05:03:11.730Z,18.81
2018-05-16T05:05:39.148Z,19.42
2018-05-16T05:08:06.578Z,20.08
2018-05-16T05:10:33.983Z,20.47
2018-05-16T05:13:01.416Z,20.97
2018-05-16T05:15:28.839Z,21.37
2018-05-16T05:17:56.301Z,21.89
2018-05-16T05:20:24.721Z,22.30
2018-05-16T05:22:52.134Z,22.69
2018-05-16T05:25:19.532Z,22.84
2018-05-16T05:27:46.952Z,22.53
2018-05-16T05:30:14.428Z,22.45
2018-05-16T05:32:41.779Z,22.20
2018-05-16T05:35:09.208Z,21.89
2018-05-16T05:37:36.623Z,21.59
2018-05-16T05:40:04.684Z,21.35
2018-05-16T05:42:32.165Z,20.97
2018-05-16T05:44:59.584Z,20.49
2018-05-16T05:47:27.024Z,20.15
2018-05-16T05:49:54.440Z,19.82
2018-05-16T05:52:21.843Z,19.64
2018-05-16T05:54:49.264Z,19.58
2018-05-16T05:57:16.675Z,19.76
2018-05-16T05:59:44.110Z,20.13
2018-05-16T06:02:11.519Z,20.37
2018-05-16T06:04:39.718Z,20.53
2018-05-16T06:07:07.297Z,20.61
2018-05-16T06:09:34.744Z,20.85
2018-05-16T06:12:02.422Z,20.44
2018-05-16T06:14:29.992Z,20.03
2018-05-16T06:16:57.552Z,19.78
2018-05-16T06:19:25.321Z,19.58
2018-05-16T06:21:52.778Z,19.43
2018-05-16T06:24:21.143Z,19.28
2018-05-16T06:26:49.849Z,19.04
2018-05-16T06:29:18.691Z,18.67
2018-05-16T06:31:47.206Z,18.45
2018-05-16T06:34:14.746Z,18.33
2018-05-16T06:36:42.218Z,18.25
2018-05-16T06:39:10.291Z,18.18
2018-05-16T06:41:37.672Z,18.13
2018-05-16T06:44:05.108Z,18.06
2018-05-16T06:46:34.909Z,17.98
2018-05-16T06:49:04.355Z,18.07
2018-05-16T06:51:33.285Z,18.29
2018-05-16T06:54:00.988Z,18.47
2018-05-16T06:56:32.451Z,18.92
2018-05-16T06:58:59.887Z,19.22
2018-05-16T07:01:27.828Z,19.34
2018-05-16T07:03:55.254Z,18.94
2018-05-16T07:06:22.714Z,18.86
2018-05-16T07:08:50.299Z,18.84
2018-05-16T07:11:17.704Z,18.85
2018-05-16T07:13:45.599Z,18.76
2018-05-16T07:16:13.184Z,18.50
2018-05-16T07:18:44.003Z,18.32
2018-05-16T07:21:11.459Z,18.22
2018-05-16T07:23:39.191Z,18.26
2018-05-16T07:26:07.330Z,18.24
2018-05-16T07:28:35.243Z,18.28
2018-05-16T07:31:04.736Z,18.28
2018-05-16T07:33:32.153Z,18.29
2018-05-16T07:36:09.702Z,18.29
2018-05-16T07:38:37.156Z,18.27
2018-05-16T07:41:04.696Z,18.28
2018-05-16T07:43:32.057Z,18.15
2018-05-16T07:45:59.472Z,18.10
2018-05-16T07:48:26.907Z,17.99
2018-05-16T07:50:54.324Z,17.70
2018-05-16T07:53:21.733Z,17.82
2018-05-16T07:55:49.153Z,17.74
2018-05-16T07:58:16.559Z,17.55
2018-05-16T08:00:43.987Z,17.82
2018-05-16T08:03:11.492Z,17.79
2018-05-16T08:05:38.818Z,17.90
2018-05-16T08:08:06.287Z,18.08
2018-05-16T08:10:33.777Z,18.21
2018-05-16T08:13:02.162Z,18.57
2018-05-16T08:15:29.572Z,18.79
2018-05-16T08:17:56.983Z,19.18
2018-05-16T08:20:24.416Z,19.64
2018-05-16T08:22:51.824Z,19.93
2018-05-16T08:25:19.244Z,20.12
2018-05-16T08:27:46.658Z,20.22
2018-05-16T08:30:14.095Z,20.20
2018-05-16T08:32:41.524Z,20.18
2018-05-16T08:35:08.932Z,20.32
2018-05-16T08:37:36.365Z,20.24
2018-05-16T08:40:04.385Z,20.31
2018-05-16T08:42:31.803Z,20.31
2018-05-16T08:44:59.224Z,20.13
2018-05-16T08:47:26.626Z,20.10
2018-05-16T08:49:54.066Z,20.14
2018-05-16T08:52:21.504Z,20.28
2018-05-16T08:54:48.944Z,20.34
2018-05-16T08:57:16.368Z,20.38
2018-05-16T08:59:43.775Z,20.35
2018-05-16T09:02:11.196Z,20.16
2018-05-16T09:04:38.618Z,20.05
2018-05-16T09:07:06.060Z,19.95
2018-05-16T09:09:33.474Z,19.88
2018-05-16T09:12:00.940Z,19.72
2018-05-16T09:14:28.348Z,19.75
2018-05-16T09:16:55.757Z,19.77
2018-05-16T09:19:23.180Z,19.66
2018-05-16T09:21:50.608Z,19.69
2018-05-16T09:24:18.078Z,19.58
2018-05-16T09:26:45.483Z,19.57
2018-05-16T09:29:12.892Z,19.69
2018-05-16T09:31:40.659Z,19.91
2018-05-16T09:34:08.072Z,20.02
2018-05-16T09:36:35.500Z,19.94
2018-05-16T09:39:02.932Z,19.97
2018-05-16T09:41:30.333Z,20.12
2018-05-16T09:43:57.765Z,20.38
2018-05-16T09:46:25.170Z,20.59
2018-05-16T09:48:52.889Z,20.84
2018-05-16T09:51:20.320Z,20.68
2018-05-16T09:53:47.731Z,20.48
2018-05-16T09:56:15.165Z,20.36
2018-05-16T09:58:42.603Z,20.44
2018-05-16T10:01:10.013Z,20.29
2018-05-16T10:03:37.447Z,20.21
2018-05-16T10:06:04.887Z,20.08
2018-05-16T10:08:32.316Z,20.12
2018-05-16T10:10:59.755Z,19.99
2018-05-16T10:13:27.167Z,19.99
2018-05-16T10:15:55.532Z,19.96
2018-05-16T10:18:23.016Z,19.94
2018-05-16T10:20:50.469Z,20.15
2018-05-16T10:23:17.896Z,20.30
2018-05-16T10:25:46.039Z,20.25
2018-05-16T10:28:13.448Z,19.84
2018-05-16T10:30:40.887Z,19.74
2018-05-16T10:33:08.370Z,19.76
2018-05-16T10:35:35.799Z,19.75
2018-05-16T10:38:03.250Z,19.67
2018-05-16T10:40:30.968Z,19.67
2018-05-16T10:42:58.425Z,19.72
2018-05-16T10:45:25.839Z,19.72
2018-05-16T10:47:53.271Z,19.73
2018-05-16T10:50:20.688Z,19.69
2018-05-16T10:52:48.136Z,19.65
2018-05-16T10:55:17.114Z,19.54
2018-05-16T10:57:44.532Z,19.51
2018-05-16T11:00:15.033Z,19.45
2018-05-16T11:02:42.517Z,19.46
2018-05-16T11:05:10.420Z,19.48
2018-05-16T11:07:38.206Z,19.45
2018-05-16T11:10:07.648Z,19.40
2018-05-16T11:12:37.383Z,19.35
2018-05-16T11:15:04.835Z,19.31
2018-05-16T11:17:33.269Z,19.31
2018-05-16T11:20:02.881Z,19.30
2018-05-16T11:22:31.025Z,19.31
2018-05-16T11:24:58.660Z,19.33
2018-05-16T11:27:27.360Z,19.29
2018-05-16T11:29:55.253Z,19.27
2018-05-16T11:32:23.663Z,19.16
2018-05-16T11:34:51.364Z,19.16
2018-05-16T11:37:20.267Z,19.17
2018-05-16T11:39:47.758Z,19.19
2018-05-16T11:42:15.185Z,19.28
2018-05-16T11:44:42.676Z,19.38
2018-05-16T11:47:11.280Z,19.58
2018-05-16T11:49:39.290Z,19.81
2018-05-16T11:52:06.699Z,20.02
2018-05-16T11:54:34.435Z,20.19
2018-05-16T11:57:01.852Z,20.37
2018-05-16T11:59:29.280Z,20.62
2018-05-16T12:01:56.708Z,20.91
2018-05-16T12:04:24.148Z,21.21
2018-05-16T12:06:52.537Z,21.44
2018-05-16T12:09:19.969Z,21.59
2018-05-16T12:11:47.382Z,21.61
2018-05-16T12:14:15.102Z,21.50
2018-05-16T12:16:42.610Z,21.27
2018-05-16T12:19:10.991Z,21.06
2018-05-16T12:21:38.429Z,20.83
2018-05-16T12:24:05.780Z,20.61
2018-05-16T12:26:33.242Z,20.51
2018-05-16T12:29:00.681Z,20.51
2018-05-16T12:31:28.092Z,20.57
2018-05-16T12:33:55.889Z,20.65
2018-05-16T12:36:23.301Z,20.75
2018-05-16T12:38:50.732Z,20.93
2018-05-16T12:41:18.184Z,21.16
2018-05-16T12:43:45.616Z,21.35
2018-05-16T12:46:13.042Z,21.54
2018-05-16T12:48:40.472Z,21.73
2018-05-16T12:51:07.879Z,21.93
2018-05-16T12:53:35.337Z,22.13
2018-05-16T12:56:08.351Z,22.32
2018-05-16T12:58:37.504Z,22.47
2018-05-16T13:01:04.970Z,22.51
2018-05-16T13:03:32.820Z,22.61
2018-05-16T13:06:03.381Z,22.74
2018-05-16T13:08:33.928Z,22.75
2018-05-16T13:11:01.421Z,22.80
2018-05-16T13:13:31.949Z,22.78
2018-05-16T13:16:00.500Z,22.76
2018-05-16T13:18:28.337Z,22.75
2018-05-16T13:20:58.052Z,22.80
2018-05-16T13:23:25.489Z,22.93
2018-05-16T13:25:52.905Z,23.02
2018-05-16T13:28:20.319Z,23.09
2018-05-16T13:30:47.743Z,23.14
2018-05-16T13:33:15.148Z,23.12
2018-05-16T13:35:42.729Z,23.18
2018-05-16T13:38:10.140Z,23.28
2018-05-16T13:40:37.569Z,23.31
2018-05-16T13:43:04.988Z,23.35
2018-05-16T13:45:32.402Z,23.40
2018-05-16T13:47:59.823Z,23.39
2018-05-16T13:50:27.608Z,23.42
2018-05-16T13:52:55.028Z,23.48
2018-05-16T13:55:22.437Z,23.50
2018-05-16T13:57:49.879Z,23.55
2018-05-16T14:00:17.300Z,23.57
2018-05-16T14:02:44.733Z,23.52
2018-05-16T14:05:12.170Z,23.52
2018-05-16T14:07:39.627Z,23.55
2018-05-16T14:10:07.064Z,23.57
2018-05-16T14:12:34.482Z,23.51
2018-05-16T14:15:01.898Z,23.61
2018-05-16T14:17:29.319Z,23.68
2018-05-16T14:19:56.837Z,23.72
2018-05-16T14:22:24.148Z,23.74
2018-05-16T14:24:51.880Z,23.78
2018-05-16T14:27:19.295Z,23.76
2018-05-16T14:29:46.705Z,23.77
2018-05-16T14:32:14.132Z,23.70
2018-05-16T14:34:41.545Z,23.51
2018-05-16T14:37:08.979Z,23.29
2018-05-16T14:39:36.400Z,23.17
2018-05-16T14:42:03.836Z,22.97
2018-05-16T14:44:31.252Z,22.79
2018-05-16T14:46:58.695Z,22.65
2018-05-16T14:49:26.133Z,22.58
2018-05-16T14:51:53.573Z,22.49
2018-05-16T14:54:20.971Z,22.32
2018-05-16T14:56:48.409Z,22.15
2018-05-16T14:59:15.816Z,22.06
2018-05-16T15:01:43.274Z,21.95
2018-05-16T15:04:10.689Z,21.88
2018-05-16T15:06:38.124Z,21.82
2018-05-16T15:09:05.528Z,21.79
2018-05-16T15:11:32.944Z,21.80
2018-05-16T15:14:00.519Z,21.80
2018-05-16T15:16:27.936Z,21.86
2018-05-16T15:18:55.430Z,21.99
2018-05-16T15:21:23.166Z,22.04
2018-05-16T15:23:50.550Z,22.11
2018-05-16T15:26:17.955Z,22.13
2018-05-16T15:28:45.380Z,22.09
2018-05-16T15:31:12.875Z,22.03
2018-05-16T15:33:40.528Z,21.91
2018-05-16T15:36:07.949Z,21.78
2018-05-16T15:38:35.379Z,21.61
2018-05-16T15:41:02.807Z,21.43
2018-05-16T15:43:30.225Z,21.27
2018-05-16T15:45:57.795Z,21.10
2018-05-16T15:48:25.785Z,20.48
2018-05-16T15:50:53.203Z,20.44
2018-05-16T15:53:20.623Z,20.10
2018-05-16T15:55:48.724Z,19.97
2018-05-16T15:58:16.153Z,19.81
2018-05-16T16:00:43.568Z,19.53
2018-05-16T16:03:10.976Z,19.40
2018-05-16T16:05:38.404Z,19.14
2018-05-16T16:08:06.710Z,19.08
2018-05-16T16:10:34.035Z,18.83
2018-05-16T16:13:01.451Z,18.45
2018-05-16T16:15:28.877Z,18.24
2018-05-16T16:17:56.321Z,18.09
2018-05-16T16:20:23.733Z,17.92
2018-05-16T16:22:51.296Z,17.83
2018-05-16T16:25:18.699Z,17.70
2018-05-16T16:27:46.117Z,17.63
2018-05-16T16:30:13.540Z,17.49
2018-05-16T16:32:40.948Z,17.44
2018-05-16T16:35:08.380Z,17.36
2018-05-16T16:37:37.262Z,17.26
2018-05-16T16:40:04.735Z,17.13
2018-05-16T16:42:32.268Z,17.14
2018-05-16T16:44:59.699Z,17.15
2018-05-16T16:47:27.095Z,17.13
2018-05-16T16:49:54.922Z,17.09
2018-05-16T16:52:22.541Z,17.06
2018-05-16T16:54:50.072Z,16.97
2018-05-16T16:57:17.919Z,16.84
2018-05-16T16:59:45.289Z,16.74
2018-05-16T17:02:12.961Z,16.65
2018-05-16T17:04:40.413Z,16.57
2018-05-16T17:07:07.827Z,16.46
2018-05-16T17:09:35.449Z,16.31
2018-05-16T17:12:02.955Z,16.15
2018-05-16T17:14:30.376Z,16.08
2018-05-16T17:16:57.957Z,16.03
2018-05-16T17:19:25.355Z,16.09
2018-05-16T17:21:52.770Z,16.08
2018-05-16T17:24:20.185Z,16.10
2018-05-16T17:26:47.682Z,16.08
2018-05-16T17:29:15.016Z,16.01
2018-05-16T17:31:42.523Z,16.00
2018-05-16T17:34:10.444Z,15.98
2018-05-16T17:36:37.863Z,15.95
2018-05-16T17:39:05.689Z,15.89
2018-05-16T17:41:33.116Z,15.90
2018-05-16T17:44:00.648Z,15.88
2018-05-16T17:46:28.136Z,15.79
2018-05-16T17:48:55.663Z,15.71
2018-05-16T17:51:23.606Z,15.70
2018-05-16T17:53:51.176Z,15.69
2018-05-16T17:56:18.427Z,15.62
2018-05-16T17:58:45.935Z,15.67
2018-05-16T18:01:13.403Z,15.68
2018-05-16T18:03:41.144Z,15.71
2018-05-16T18:06:08.700Z,15.71
2018-05-16T18:08:36.119Z,15.75
2018-05-16T18:11:03.532Z,15.68
2018-05-16T18:16:46.364Z,15.73
2018-05-16T18:19:14.096Z,15.72
2018-05-16T18:21:41.514Z,15.73
2018-05-16T18:24:08.926Z,15.75
2018-05-16T18:26:36.357Z,15.77
2018-05-16T18:29:03.768Z,15.73
2018-05-16T18:31:31.196Z,15.69
2018-05-16T18:33:58.632Z,15.78
2018-05-16T18:36:26.016Z,15.80
2018-05-16T18:38:53.441Z,15.76
2018-05-16T18:41:20.847Z,15.71
2018-05-16T18:43:48.296Z,15.69
2018-05-16T18:46:15.712Z,15.62
2018-05-16T18:48:43.228Z,15.63
2018-05-16T18:51:10.845Z,15.54
2018-05-16T18:53:38.294Z,15.53
2018-05-16T18:56:05.745Z,15.54
2018-05-16T18:58:33.173Z,15.43
2018-05-16T19:01:00.639Z,15.40
2018-05-16T19:03:28.199Z,15.34
2018-05-16T19:05:55.615Z,15.44
2018-05-16T19:08:23.031Z,15.45
2018-05-16T19:10:50.473Z,15.38
2018-05-16T19:13:18.000Z,15.40
2018-05-16T19:15:45.460Z,15.36
2018-05-16T19:18:12.876Z,15.27
2018-05-16T19:20:40.320Z,15.28
2018-05-16T19:23:07.805Z,15.16
2018-05-16T19:25:35.624Z,15.13
2018-05-16T19:28:03.072Z,15.03
2018-05-16T19:30:30.522Z,14.93
2018-05-16T19:32:58.053Z,14.82
2018-05-16T19:35:28.044Z,14.82
2018-05-16T19:37:56.187Z,14.78
2018-05-16T19:40:24.671Z,14.78
2018-05-16T19:42:53.471Z,14.75
2018-05-16T19:45:21.014Z,14.70
2018-05-16T19:47:48.425Z,14.67
2018-05-16T19:50:15.970Z,14.64
2018-05-16T19:52:44.557Z,14.57
2018-05-16T19:55:13.104Z,14.54
2018-05-16T19:57:41.360Z,14.58
2018-05-16T20:00:08.861Z,14.54
2018-05-16T20:02:37.379Z,14.52
2018-05-16T20:05:06.557Z,14.51
2018-05-16T20:07:35.688Z,14.48
2018-05-16T20:10:03.691Z,14.49
2018-05-16T20:12:31.715Z,14.48
2018-05-16T20:14:59.483Z,14.44
2018-05-16T20:17:26.891Z,14.39
2018-05-16T20:19:54.344Z,14.30
2018-05-16T20:22:21.949Z,14.26
2018-05-16T20:24:49.369Z,13.95
2018-05-16T20:27:16.786Z,13.93
2018-05-16T20:29:44.572Z,13.99
2018-05-16T20:32:12.006Z,14.02
2018-05-16T20:34:39.430Z,13.98
2018-05-16T20:37:06.852Z,13.94
2018-05-16T20:39:34.274Z,13.94
2018-05-16T20:42:01.680Z,13.88
2018-05-16T20:44:29.107Z,13.66
2018-05-16T20:46:57.175Z,13.66
2018-05-16T20:49:24.756Z,13.73
2018-05-16T20:51:52.188Z,13.73
2018-05-16T20:54:19.624Z,13.62
2018-05-16T20:56:47.076Z,13.58
2018-05-16T20:59:14.661Z,13.49
2018-05-16T21:01:42.080Z,13.50
2018-05-16T21:04:09.505Z,13.55
2018-05-16T21:06:36.927Z,13.39
2018-05-16T21:09:05.069Z,13.40
2018-05-16T21:11:32.472Z,13.42
2018-05-16T21:13:59.923Z,13.28
2018-05-16T21:16:27.355Z,13.29
2018-05-16T21:18:54.795Z,13.29
2018-05-16T21:21:22.215Z,13.39
2018-05-16T21:23:50.015Z,13.34
2018-05-16T21:26:17.411Z,13.43
2018-05-16T21:28:44.849Z,13.36
2018-05-16T21:31:12.283Z,13.43
2018-05-16T21:33:39.683Z,13.46
2018-05-16T21:36:07.103Z,13.30
2018-05-16T21:38:34.692Z,13.25
2018-05-16T21:41:02.340Z,13.23
2018-05-16T21:43:29.756Z,13.22
2018-05-16T21:45:57.177Z,13.20
2018-05-16T21:48:24.598Z,13.18
2018-05-16T21:50:52.358Z,13.23
2018-05-16T21:53:19.755Z,13.15
2018-05-16T21:55:47.185Z,13.14
2018-05-16T21:58:14.985Z,13.19
2018-05-16T22:00:42.410Z,13.06
2018-05-16T22:03:09.824Z,13.02
2018-05-16T22:05:37.591Z,12.93
2018-05-16T22:08:05.005Z,12.84
2018-05-16T22:10:32.414Z,12.95
2018-05-16T22:12:59.847Z,12.74
2018-05-16T22:15:27.255Z,12.83
2018-05-16T22:17:54.666Z,12.70
2018-05-16T22:20:22.099Z,12.72
2018-05-16T22:22:49.529Z,12.83
2018-05-16T22:25:16.919Z,12.76
2018-05-16T22:27:44.336Z,12.78
2018-05-16T22:30:11.179Z,12.78
2018-05-16T22:32:44.260Z,12.66
2018-05-16T22:35:17.322Z,12.65
2018-05-16T22:37:50.453Z,12.53
2018-05-16T22:40:23.517Z,12.42
2018-05-16T22:42:50.382Z,12.54
2018-05-16T22:45:19.691Z,12.59
2018-05-16T22:47:47.282Z,12.52
2018-05-16T22:50:14.685Z,12.56
2018-05-16T22:52:42.104Z,12.39
2018-05-16T22:55:09.673Z,12.30
2018-05-16T22:57:37.081Z,12.40
2018-05-16T23:00:04.495Z,12.36
2018-05-16T23:02:31.924Z,12.42
2018-05-16T23:04:59.327Z,12.44
2018-05-16T23:07:26.740Z,12.36
2018-05-16T23:09:54.328Z,12.36
2018-05-16T23:12:21.728Z,12.37
2018-05-16T23:14:49.140Z,12.33
2018-05-16T23:17:16.568Z,12.23
2018-05-16T23:19:43.985Z,12.13
2018-05-16T23:22:14.287Z,11.98
2018-05-16T23:24:41.709Z,11.87
2018-05-16T23:27:09.124Z,11.92
2018-05-16T23:29:36.548Z,11.71
2018-05-16T23:32:03.977Z,11.75
2018-05-16T23:34:31.381Z,11.74
2018-05-16T23:36:58.808Z,11.68
2018-05-16T23:39:26.256Z,11.69
2018-05-16T23:41:53.664Z,11.49
2018-05-16T23:44:21.092Z,11.49
2018-05-16T23:46:48.497Z,11.51
2018-05-16T23:49:15.900Z,11.46
2018-05-16T23:51:43.340Z,11.37
2018-05-16T23:54:10.760Z,11.45
2018-05-16T23:56:38.179Z,11.45
2018-05-16T23:59:05.596Z,11.39
